sensor_id;sensor_type;location;lat;lon;timestamp;P1;durP1;ratioP1;P2;durP2;ratioP2
56073;SDS011;41950;55.840;37.442;2023-06-14T00:00:58;9.50;;;4.22;;
56073;SDS011;41950;55.840;37.442;2023-06-14T00:03:23;8.15;;;4.45;;
56073;SDS011;41950;55.840;37.442;2023-06-14T00:05:49;6.97;;;3.65;;
56073;SDS011;41950;55.840;37.442;2023-06-14T00:08:15;10.48;;;4.00;;
56073;SDS011;41950;55.840;37.442;2023-06-14T00:10:41;7.30;;;3.70;;
56073;SDS011;41950;55.840;37.442;2023-06-14T00:13:08;8.05;;;4.03;;
56073;SDS011;41950;55.840;37.442;2023-06-14T00:15:34;8.27;;;4.22;;
56073;SDS011;41950;55.840;37.442;2023-06-14T00:18:01;7.47;;;3.90;;
56073;SDS011;41950;55.840;37.442;2023-06-14T00:20:27;9.32;;;4.70;;
56073;SDS011;41950;55.840;37.442;2023-06-14T00:22:54;11.30;;;4.80;;
56073;SDS011;41950;55.840;37.442;2023-06-14T00:25:22;9.52;;;4.22;;
56073;SDS011;41950;55.840;37.442;2023-06-14T00:27:48;6.30;;;3.70;;
56073;SDS011;41950;55.840;37.442;2023-06-14T00:30:14;8.80;;;4.20;;
56073;SDS011;41950;55.840;37.442;2023-06-14T00:32:40;9.10;;;4.15;;
56073;SDS011;41950;55.840;37.442;2023-06-14T00:35:08;9.02;;;4.13;;
56073;SDS011;41950;55.840;37.442;2023-06-14T00:37:34;7.60;;;4.22;;
56073;SDS011;41950;55.840;37.442;2023-06-14T00:40:00;8.60;;;4.15;;
56073;SDS011;41950;55.840;37.442;2023-06-14T00:42:29;7.80;;;4.40;;
56073;SDS011;41950;55.840;37.442;2023-06-14T00:44:54;7.53;;;3.90;;
56073;SDS011;41950;55.840;37.442;2023-06-14T00:47:20;7.53;;;4.30;;
56073;SDS011;41950;55.840;37.442;2023-06-14T00:49:52;7.07;;;4.00;;
56073;SDS011;41950;55.840;37.442;2023-06-14T00:52:20;8.13;;;4.32;;
56073;SDS011;41950;55.840;37.442;2023-06-14T00:54:47;7.03;;;4.10;;
56073;SDS011;41950;55.840;37.442;2023-06-14T00:57:13;8.80;;;4.20;;
56073;SDS011;41950;55.840;37.442;2023-06-14T00:59:46;9.45;;;4.57;;
56073;SDS011;41950;55.840;37.442;2023-06-14T01:02:13;9.00;;;4.22;;
56073;SDS011;41950;55.840;37.442;2023-06-14T01:04:46;9.15;;;4.53;;
56073;SDS011;41950;55.840;37.442;2023-06-14T01:10:03;8.30;;;4.63;;
56073;SDS011;41950;55.840;37.442;2023-06-14T01:15:33;7.88;;;4.50;;
56073;SDS011;41950;55.840;37.442;2023-06-14T01:18:00;9.25;;;4.40;;
56073;SDS011;41950;55.840;37.442;2023-06-14T01:20:30;7.93;;;4.40;;
56073;SDS011;41950;55.840;37.442;2023-06-14T01:22:58;9.20;;;4.28;;
56073;SDS011;41950;55.840;37.442;2023-06-14T01:25:25;10.18;;;4.40;;
56073;SDS011;41950;55.840;37.442;2023-06-14T01:28:02;8.77;;;4.53;;
56073;SDS011;41950;55.840;37.442;2023-06-14T01:30:36;7.60;;;4.07;;
56073;SDS011;41950;55.840;37.442;2023-06-14T01:33:03;8.15;;;4.55;;
56073;SDS011;41950;55.840;37.442;2023-06-14T01:35:30;7.97;;;4.28;;
56073;SDS011;41950;55.840;37.442;2023-06-14T01:37:56;8.57;;;3.95;;
56073;SDS011;41950;55.840;37.442;2023-06-14T01:40:23;10.18;;;4.60;;
56073;SDS011;41950;55.840;37.442;2023-06-14T01:42:50;7.97;;;4.72;;
56073;SDS011;41950;55.840;37.442;2023-06-14T01:45:17;7.20;;;4.45;;
56073;SDS011;41950;55.840;37.442;2023-06-14T01:47:44;9.70;;;4.60;;
56073;SDS011;41950;55.840;37.442;2023-06-14T01:50:10;8.13;;;5.00;;
56073;SDS011;41950;55.840;37.442;2023-06-14T01:52:37;9.38;;;4.78;;
56073;SDS011;41950;55.840;37.442;2023-06-14T01:55:06;11.25;;;4.95;;
56073;SDS011;41950;55.840;37.442;2023-06-14T01:57:33;9.70;;;4.90;;
56073;SDS011;41950;55.840;37.442;2023-06-14T01:59:58;9.55;;;5.00;;
56073;SDS011;41950;55.840;37.442;2023-06-14T02:02:24;12.60;;;5.13;;
56073;SDS011;41950;55.840;37.442;2023-06-14T02:04:50;9.70;;;5.28;;
56073;SDS011;41950;55.840;37.442;2023-06-14T02:07:16;10.27;;;5.70;;
56073;SDS011;41950;55.840;37.442;2023-06-14T02:09:41;11.50;;;5.55;;
56073;SDS011;41950;55.840;37.442;2023-06-14T02:12:07;12.38;;;5.30;;
56073;SDS011;41950;55.840;37.442;2023-06-14T02:14:33;9.00;;;5.57;;
56073;SDS011;41950;55.840;37.442;2023-06-14T02:16:59;10.20;;;5.63;;
56073;SDS011;41950;55.840;37.442;2023-06-14T02:19:26;12.15;;;5.22;;
56073;SDS011;41950;55.840;37.442;2023-06-14T02:21:52;10.48;;;5.10;;
56073;SDS011;41950;55.840;37.442;2023-06-14T02:24:17;10.80;;;5.40;;
56073;SDS011;41950;55.840;37.442;2023-06-14T02:26:43;9.32;;;5.28;;
56073;SDS011;41950;55.840;37.442;2023-06-14T02:29:09;10.43;;;5.95;;
56073;SDS011;41950;55.840;37.442;2023-06-14T02:31:37;9.90;;;5.32;;
56073;SDS011;41950;55.840;37.442;2023-06-14T02:34:04;9.75;;;5.65;;
56073;SDS011;41950;55.840;37.442;2023-06-14T02:36:29;8.70;;;5.55;;
56073;SDS011;41950;55.840;37.442;2023-06-14T02:38:55;11.93;;;6.18;;
56073;SDS011;41950;55.840;37.442;2023-06-14T02:41:25;10.73;;;6.25;;
56073;SDS011;41950;55.840;37.442;2023-06-14T02:43:52;12.63;;;6.40;;
56073;SDS011;41950;55.840;37.442;2023-06-14T02:46:19;10.18;;;5.40;;
56073;SDS011;41950;55.840;37.442;2023-06-14T02:48:45;11.07;;;5.72;;
56073;SDS011;41950;55.840;37.442;2023-06-14T02:51:11;10.98;;;5.72;;
56073;SDS011;41950;55.840;37.442;2023-06-14T02:53:38;9.95;;;6.03;;
56073;SDS011;41950;55.840;37.442;2023-06-14T02:56:06;11.38;;;6.10;;
56073;SDS011;41950;55.840;37.442;2023-06-14T02:58:32;11.18;;;6.00;;
56073;SDS011;41950;55.840;37.442;2023-06-14T03:00:58;12.50;;;6.28;;
56073;SDS011;41950;55.840;37.442;2023-06-14T03:03:29;12.02;;;6.10;;
56073;SDS011;41950;55.840;37.442;2023-06-14T03:05:56;9.18;;;6.13;;
56073;SDS011;41950;55.840;37.442;2023-06-14T03:08:23;12.45;;;6.20;;
56073;SDS011;41950;55.840;37.442;2023-06-14T03:10:52;9.35;;;6.18;;
56073;SDS011;41950;55.840;37.442;2023-06-14T03:13:18;10.98;;;5.68;;
56073;SDS011;41950;55.840;37.442;2023-06-14T03:15:47;12.40;;;6.03;;
56073;SDS011;41950;55.840;37.442;2023-06-14T03:18:16;10.25;;;6.28;;
56073;SDS011;41950;55.840;37.442;2023-06-14T03:20:42;11.02;;;5.93;;
56073;SDS011;41950;55.840;37.442;2023-06-14T03:23:11;10.85;;;6.18;;
56073;SDS011;41950;55.840;37.442;2023-06-14T03:25:37;12.02;;;6.30;;
56073;SDS011;41950;55.840;37.442;2023-06-14T03:28:04;13.90;;;6.30;;
56073;SDS011;41950;55.840;37.442;2023-06-14T03:30:31;12.00;;;6.68;;
56073;SDS011;41950;55.840;37.442;2023-06-14T03:32:57;10.88;;;6.45;;
56073;SDS011;41950;55.840;37.442;2023-06-14T03:35:23;13.65;;;6.88;;
56073;SDS011;41950;55.840;37.442;2023-06-14T03:37:50;11.20;;;6.07;;
56073;SDS011;41950;55.840;37.442;2023-06-14T03:40:17;14.38;;;7.35;;
56073;SDS011;41950;55.840;37.442;2023-06-14T03:42:46;12.68;;;6.70;;
56073;SDS011;41950;55.840;37.442;2023-06-14T03:45:13;13.20;;;7.05;;
56073;SDS011;41950;55.840;37.442;2023-06-14T03:47:39;10.60;;;6.50;;
56073;SDS011;41950;55.840;37.442;2023-06-14T03:50:05;12.23;;;6.65;;
56073;SDS011;41950;55.840;37.442;2023-06-14T03:52:31;13.07;;;6.38;;
56073;SDS011;41950;55.840;37.442;2023-06-14T03:55:01;11.50;;;6.25;;
56073;SDS011;41950;55.840;37.442;2023-06-14T03:57:30;10.90;;;6.63;;
56073;SDS011;41950;55.840;37.442;2023-06-14T03:59:57;11.43;;;6.45;;
56073;SDS011;41950;55.840;37.442;2023-06-14T04:02:25;12.65;;;5.80;;
56073;SDS011;41950;55.840;37.442;2023-06-14T04:04:53;25.63;;;6.75;;
56073;SDS011;41950;55.840;37.442;2023-06-14T04:07:23;13.05;;;6.35;;
56073;SDS011;41950;55.840;37.442;2023-06-14T04:09:51;10.75;;;6.00;;
56073;SDS011;41950;55.840;37.442;2023-06-14T04:12:31;12.85;;;5.95;;
56073;SDS011;41950;55.840;37.442;2023-06-14T04:14:57;9.68;;;5.70;;
56073;SDS011;41950;55.840;37.442;2023-06-14T04:17:25;12.57;;;7.18;;
56073;SDS011;41950;55.840;37.442;2023-06-14T04:19:52;13.65;;;6.80;;
56073;SDS011;41950;55.840;37.442;2023-06-14T04:22:17;17.35;;;6.95;;
56073;SDS011;41950;55.840;37.442;2023-06-14T04:24:44;11.38;;;6.72;;
56073;SDS011;41950;55.840;37.442;2023-06-14T04:27:11;14.00;;;6.70;;
56073;SDS011;41950;55.840;37.442;2023-06-14T04:29:40;11.57;;;6.45;;
56073;SDS011;41950;55.840;37.442;2023-06-14T04:32:08;11.70;;;5.82;;
56073;SDS011;41950;55.840;37.442;2023-06-14T04:34:35;11.27;;;5.30;;
56073;SDS011;41950;55.840;37.442;2023-06-14T04:37:02;10.18;;;4.95;;
56073;SDS011;41950;55.840;37.442;2023-06-14T04:39:29;9.00;;;4.78;;
56073;SDS011;41950;55.840;37.442;2023-06-14T04:41:57;10.75;;;4.72;;
56073;SDS011;41950;55.840;37.442;2023-06-14T04:44:25;11.63;;;5.18;;
56073;SDS011;41950;55.840;37.442;2023-06-14T04:46:57;9.63;;;4.90;;
56073;SDS011;41950;55.840;37.442;2023-06-14T04:49:24;8.20;;;4.00;;
56073;SDS011;41950;55.840;37.442;2023-06-14T04:51:51;9.63;;;4.55;;
56073;SDS011;41950;55.840;37.442;2023-06-14T04:54:24;10.57;;;4.82;;
56073;SDS011;41950;55.840;37.442;2023-06-14T04:56:53;9.63;;;4.85;;
56073;SDS011;41950;55.840;37.442;2023-06-14T04:59:21;8.30;;;4.05;;
56073;SDS011;41950;55.840;37.442;2023-06-14T05:01:50;10.00;;;6.18;;
56073;SDS011;41950;55.840;37.442;2023-06-14T05:04:18;11.98;;;4.22;;
56073;SDS011;41950;55.840;37.442;2023-06-14T05:06:45;9.18;;;3.97;;
56073;SDS011;41950;55.840;37.442;2023-06-14T05:09:14;8.15;;;3.92;;
56073;SDS011;41950;55.840;37.442;2023-06-14T05:11:43;15.20;;;4.72;;
56073;SDS011;41950;55.840;37.442;2023-06-14T05:14:10;7.50;;;4.13;;
56073;SDS011;41950;55.840;37.442;2023-06-14T05:16:37;7.40;;;3.33;;
56073;SDS011;41950;55.840;37.442;2023-06-14T05:19:03;7.95;;;3.67;;
56073;SDS011;41950;55.840;37.442;2023-06-14T05:21:31;6.80;;;3.60;;
56073;SDS011;41950;55.840;37.442;2023-06-14T05:24:00;10.48;;;3.80;;
56073;SDS011;41950;55.840;37.442;2023-06-14T05:26:26;5.85;;;3.70;;
56073;SDS011;41950;55.840;37.442;2023-06-14T05:28:56;7.03;;;3.20;;
56073;SDS011;41950;55.840;37.442;2023-06-14T05:31:23;8.00;;;3.35;;
56073;SDS011;41950;55.840;37.442;2023-06-14T05:33:51;7.80;;;3.28;;
56073;SDS011;41950;55.840;37.442;2023-06-14T05:36:19;6.75;;;3.10;;
56073;SDS011;41950;55.840;37.442;2023-06-14T05:38:49;7.20;;;3.17;;
56073;SDS011;41950;55.840;37.442;2023-06-14T05:41:24;4.55;;;2.50;;
56073;SDS011;41950;55.840;37.442;2023-06-14T05:43:56;4.43;;;2.70;;
56073;SDS011;41950;55.840;37.442;2023-06-14T05:48:57;6.40;;;3.10;;
56073;SDS011;41950;55.840;37.442;2023-06-14T05:51:23;6.18;;;2.75;;
56073;SDS011;41950;55.840;37.442;2023-06-14T05:53:50;6.70;;;3.15;;
56073;SDS011;41950;55.840;37.442;2023-06-14T05:56:17;6.50;;;2.95;;
56073;SDS011;41950;55.840;37.442;2023-06-14T05:58:44;5.53;;;3.38;;
56073;SDS011;41950;55.840;37.442;2023-06-14T06:01:10;4.25;;;3.00;;
56073;SDS011;41950;55.840;37.442;2023-06-14T06:03:36;5.53;;;2.78;;
56073;SDS011;41950;55.840;37.442;2023-06-14T06:06:02;4.75;;;2.53;;
56073;SDS011;41950;55.840;37.442;2023-06-14T06:08:28;7.97;;;2.78;;
56073;SDS011;41950;55.840;37.442;2023-06-14T06:10:55;4.35;;;2.58;;
56073;SDS011;41950;55.840;37.442;2023-06-14T06:13:21;6.72;;;3.22;;
56073;SDS011;41950;55.840;37.442;2023-06-14T06:15:47;6.38;;;2.45;;
56073;SDS011;41950;55.840;37.442;2023-06-14T06:18:13;4.50;;;2.60;;
56073;SDS011;41950;55.840;37.442;2023-06-14T06:20:38;7.43;;;2.85;;
56073;SDS011;41950;55.840;37.442;2023-06-14T06:23:04;4.45;;;2.58;;
56073;SDS011;41950;55.840;37.442;2023-06-14T06:25:29;5.82;;;2.22;;
56073;SDS011;41950;55.840;37.442;2023-06-14T06:27:57;6.93;;;2.55;;
56073;SDS011;41950;55.840;37.442;2023-06-14T06:30:23;6.13;;;2.72;;
56073;SDS011;41950;55.840;37.442;2023-06-14T06:32:50;4.93;;;2.55;;
56073;SDS011;41950;55.840;37.442;2023-06-14T06:35:16;5.55;;;2.40;;
56073;SDS011;41950;55.840;37.442;2023-06-14T06:37:42;4.68;;;2.30;;
56073;SDS011;41950;55.840;37.442;2023-06-14T06:40:10;3.95;;;2.60;;
56073;SDS011;41950;55.840;37.442;2023-06-14T06:42:37;4.30;;;2.30;;
56073;SDS011;41950;55.840;37.442;2023-06-14T06:45:03;7.45;;;2.55;;
56073;SDS011;41950;55.840;37.442;2023-06-14T06:47:35;6.28;;;2.53;;
56073;SDS011;41950;55.840;37.442;2023-06-14T06:50:01;6.18;;;2.58;;
56073;SDS011;41950;55.840;37.442;2023-06-14T06:52:32;8.05;;;2.72;;
56073;SDS011;41950;55.840;37.442;2023-06-14T06:54:59;6.82;;;2.40;;
56073;SDS011;41950;55.840;37.442;2023-06-14T06:57:25;4.40;;;2.20;;
56073;SDS011;41950;55.840;37.442;2023-06-14T06:59:51;7.05;;;2.85;;
56073;SDS011;41950;55.840;37.442;2023-06-14T07:02:17;4.90;;;2.20;;
56073;SDS011;41950;55.840;37.442;2023-06-14T07:04:43;5.25;;;2.10;;
56073;SDS011;41950;55.840;37.442;2023-06-14T07:07:09;4.25;;;2.30;;
56073;SDS011;41950;55.840;37.442;2023-06-14T07:09:38;7.45;;;2.78;;
56073;SDS011;41950;55.840;37.442;2023-06-14T07:12:04;6.57;;;2.80;;
56073;SDS011;41950;55.840;37.442;2023-06-14T07:14:30;7.38;;;2.85;;
56073;SDS011;41950;55.840;37.442;2023-06-14T07:16:56;5.10;;;2.60;;
56073;SDS011;41950;55.840;37.442;2023-06-14T07:19:21;5.25;;;2.58;;
56073;SDS011;41950;55.840;37.442;2023-06-14T07:21:49;5.43;;;2.45;;
56073;SDS011;41950;55.840;37.442;2023-06-14T07:24:15;3.97;;;2.40;;
56073;SDS011;41950;55.840;37.442;2023-06-14T07:26:43;4.10;;;2.47;;
56073;SDS011;41950;55.840;37.442;2023-06-14T07:29:08;4.97;;;2.45;;
56073;SDS011;41950;55.840;37.442;2023-06-14T07:31:34;3.78;;;2.38;;
56073;SDS011;41950;55.840;37.442;2023-06-14T07:34:02;4.63;;;2.05;;
56073;SDS011;41950;55.840;37.442;2023-06-14T07:36:27;5.40;;;2.40;;
56073;SDS011;41950;55.840;37.442;2023-06-14T07:38:53;5.15;;;2.60;;
56073;SDS011;41950;55.840;37.442;2023-06-14T07:41:19;5.10;;;2.20;;
56073;SDS011;41950;55.840;37.442;2023-06-14T07:43:44;5.30;;;2.47;;
56073;SDS011;41950;55.840;37.442;2023-06-14T07:46:10;5.45;;;2.53;;
56073;SDS011;41950;55.840;37.442;2023-06-14T07:48:36;6.38;;;2.70;;
56073;SDS011;41950;55.840;37.442;2023-06-14T07:51:02;5.22;;;2.42;;
56073;SDS011;41950;55.840;37.442;2023-06-14T07:53:28;5.90;;;2.50;;
56073;SDS011;41950;55.840;37.442;2023-06-14T07:55:54;4.35;;;2.63;;
56073;SDS011;41950;55.840;37.442;2023-06-14T07:58:20;5.82;;;2.28;;
56073;SDS011;41950;55.840;37.442;2023-06-14T08:00:45;5.13;;;2.30;;
56073;SDS011;41950;55.840;37.442;2023-06-14T08:03:12;4.03;;;2.40;;
56073;SDS011;41950;55.840;37.442;2023-06-14T08:05:38;4.82;;;2.17;;
56073;SDS011;41950;55.840;37.442;2023-06-14T08:08:03;6.28;;;2.40;;
56073;SDS011;41950;55.840;37.442;2023-06-14T08:10:29;5.43;;;2.40;;
56073;SDS011;41950;55.840;37.442;2023-06-14T08:12:55;3.70;;;2.40;;
56073;SDS011;41950;55.840;37.442;2023-06-14T08:15:20;4.57;;;2.35;;
56073;SDS011;41950;55.840;37.442;2023-06-14T08:17:46;5.85;;;2.17;;
56073;SDS011;41950;55.840;37.442;2023-06-14T08:20:12;4.30;;;2.35;;
56073;SDS011;41950;55.840;37.442;2023-06-14T08:22:42;7.68;;;2.42;;
56073;SDS011;41950;55.840;37.442;2023-06-14T08:25:08;5.57;;;2.50;;
56073;SDS011;41950;55.840;37.442;2023-06-14T08:27:38;4.57;;;2.33;;
56073;SDS011;41950;55.840;37.442;2023-06-14T08:30:04;5.88;;;2.30;;
56073;SDS011;41950;55.840;37.442;2023-06-14T08:32:34;5.78;;;2.50;;
56073;SDS011;41950;55.840;37.442;2023-06-14T08:35:00;5.13;;;2.53;;
56073;SDS011;41950;55.840;37.442;2023-06-14T08:37:26;5.07;;;2.47;;
56073;SDS011;41950;55.840;37.442;2023-06-14T08:39:52;4.38;;;2.90;;
56073;SDS011;41950;55.840;37.442;2023-06-14T08:42:18;8.27;;;2.70;;
56073;SDS011;41950;55.840;37.442;2023-06-14T08:44:46;4.63;;;2.70;;
56073;SDS011;41950;55.840;37.442;2023-06-14T08:47:12;4.93;;;2.85;;
56073;SDS011;41950;55.840;37.442;2023-06-14T08:49:39;3.88;;;2.50;;
56073;SDS011;41950;55.840;37.442;2023-06-14T08:52:10;4.57;;;2.50;;
56073;SDS011;41950;55.840;37.442;2023-06-14T08:54:38;4.13;;;2.33;;
56073;SDS011;41950;55.840;37.442;2023-06-14T08:57:12;3.80;;;2.65;;
56073;SDS011;41950;55.840;37.442;2023-06-14T08:59:44;5.60;;;2.90;;
56073;SDS011;41950;55.840;37.442;2023-06-14T09:02:14;5.88;;;2.70;;
56073;SDS011;41950;55.840;37.442;2023-06-14T09:04:43;7.00;;;3.30;;
56073;SDS011;41950;55.840;37.442;2023-06-14T09:07:10;3.83;;;2.72;;
56073;SDS011;41950;55.840;37.442;2023-06-14T09:09:39;5.85;;;2.65;;
56073;SDS011;41950;55.840;37.442;2023-06-14T09:12:15;6.30;;;2.88;;
56073;SDS011;41950;55.840;37.442;2023-06-14T09:14:47;5.78;;;3.45;;
56073;SDS011;41950;55.840;37.442;2023-06-14T09:17:13;9.75;;;2.67;;
56073;SDS011;41950;55.840;37.442;2023-06-14T09:19:40;5.50;;;2.53;;
56073;SDS011;41950;55.840;37.442;2023-06-14T09:22:06;5.55;;;3.10;;
56073;SDS011;41950;55.840;37.442;2023-06-14T09:24:32;6.60;;;3.53;;
56073;SDS011;41950;55.840;37.442;2023-06-14T09:26:57;5.43;;;2.47;;
56073;SDS011;41950;55.840;37.442;2023-06-14T09:29:23;4.25;;;2.60;;
56073;SDS011;41950;55.840;37.442;2023-06-14T09:31:49;5.18;;;2.80;;
56073;SDS011;41950;55.840;37.442;2023-06-14T09:34:16;6.32;;;2.65;;
56073;SDS011;41950;55.840;37.442;2023-06-14T09:36:44;4.60;;;2.60;;
56073;SDS011;41950;55.840;37.442;2023-06-14T09:39:16;4.28;;;2.75;;
56073;SDS011;41950;55.840;37.442;2023-06-14T09:41:59;5.53;;;2.58;;
56073;SDS011;41950;55.840;37.442;2023-06-14T09:44:33;6.00;;;2.80;;
56073;SDS011;41950;55.840;37.442;2023-06-14T09:47:08;4.57;;;3.00;;
56073;SDS011;41950;55.840;37.442;2023-06-14T09:49:34;6.18;;;2.83;;
56073;SDS011;41950;55.840;37.442;2023-06-14T09:52:00;5.22;;;2.63;;
56073;SDS011;41950;55.840;37.442;2023-06-14T09:54:27;4.88;;;3.03;;
56073;SDS011;41950;55.840;37.442;2023-06-14T09:56:54;4.97;;;2.67;;
56073;SDS011;41950;55.840;37.442;2023-06-14T09:59:21;5.60;;;3.20;;
56073;SDS011;41950;55.840;37.442;2023-06-14T10:01:54;7.75;;;2.88;;
56073;SDS011;41950;55.840;37.442;2023-06-14T10:06:52;4.85;;;2.55;;
56073;SDS011;41950;55.840;37.442;2023-06-14T10:09:19;5.05;;;2.40;;
56073;SDS011;41950;55.840;37.442;2023-06-14T10:11:47;4.25;;;2.53;;
56073;SDS011;41950;55.840;37.442;2023-06-14T10:14:14;3.78;;;2.60;;
56073;SDS011;41950;55.840;37.442;2023-06-14T10:16:55;4.68;;;2.50;;
56073;SDS011;41950;55.840;37.442;2023-06-14T10:19:39;5.03;;;2.83;;
56073;SDS011;41950;55.840;37.442;2023-06-14T10:22:10;4.00;;;2.47;;
56073;SDS011;41950;55.840;37.442;2023-06-14T10:24:45;4.05;;;2.58;;
56073;SDS011;41950;55.840;37.442;2023-06-14T10:27:13;4.30;;;2.17;;
56073;SDS011;41950;55.840;37.442;2023-06-14T10:32:34;4.93;;;2.70;;
56073;SDS011;41950;55.840;37.442;2023-06-14T10:35:01;6.68;;;2.70;;
56073;SDS011;41950;55.840;37.442;2023-06-14T10:37:31;5.65;;;2.70;;
56073;SDS011;41950;55.840;37.442;2023-06-14T10:39:57;4.00;;;2.60;;
56073;SDS011;41950;55.840;37.442;2023-06-14T10:42:27;3.60;;;2.40;;
56073;SDS011;41950;55.840;37.442;2023-06-14T10:44:56;4.00;;;2.50;;
56073;SDS011;41950;55.840;37.442;2023-06-14T10:47:34;4.95;;;2.25;;
56073;SDS011;41950;55.840;37.442;2023-06-14T10:50:04;4.18;;;2.47;;
56073;SDS011;41950;55.840;37.442;2023-06-14T10:52:38;5.43;;;2.85;;
56073;SDS011;41950;55.840;37.442;2023-06-14T10:55:12;5.50;;;2.30;;
56073;SDS011;41950;55.840;37.442;2023-06-14T11:00:22;6.47;;;2.58;;
56073;SDS011;41950;55.840;37.442;2023-06-14T11:05:54;4.72;;;2.67;;
56073;SDS011;41950;55.840;37.442;2023-06-14T11:11:06;5.00;;;2.67;;
56073;SDS011;41950;55.840;37.442;2023-06-14T11:13:32;5.13;;;2.63;;
56073;SDS011;41950;55.840;37.442;2023-06-14T11:15:59;5.32;;;2.55;;
56073;SDS011;41950;55.840;37.442;2023-06-14T11:18:25;5.72;;;3.72;;
56073;SDS011;41950;55.840;37.442;2023-06-14T11:20:52;3.33;;;2.50;;
56073;SDS011;41950;55.840;37.442;2023-06-14T11:23:18;4.43;;;2.35;;
56073;SDS011;41950;55.840;37.442;2023-06-14T11:25:51;4.68;;;3.00;;
56073;SDS011;41950;55.840;37.442;2023-06-14T11:28:17;4.30;;;2.75;;
56073;SDS011;41950;55.840;37.442;2023-06-14T11:30:45;4.25;;;2.38;;
56073;SDS011;41950;55.840;37.442;2023-06-14T11:33:11;4.57;;;2.72;;
56073;SDS011;41950;55.840;37.442;2023-06-14T11:35:45;5.22;;;2.85;;
56073;SDS011;41950;55.840;37.442;2023-06-14T11:38:11;4.32;;;2.60;;
56073;SDS011;41950;55.840;37.442;2023-06-14T11:40:38;5.63;;;2.85;;
56073;SDS011;41950;55.840;37.442;2023-06-14T11:43:04;5.25;;;2.75;;
56073;SDS011;41950;55.840;37.442;2023-06-14T11:45:30;5.22;;;2.33;;
56073;SDS011;41950;55.840;37.442;2023-06-14T11:47:57;4.13;;;2.60;;
56073;SDS011;41950;55.840;37.442;2023-06-14T11:50:24;5.40;;;2.30;;
56073;SDS011;41950;55.840;37.442;2023-06-14T11:52:57;5.20;;;2.53;;
56073;SDS011;41950;55.840;37.442;2023-06-14T11:55:36;4.90;;;2.25;;
56073;SDS011;41950;55.840;37.442;2023-06-14T11:58:04;4.03;;;2.38;;
56073;SDS011;41950;55.840;37.442;2023-06-14T12:00:30;4.85;;;2.28;;
56073;SDS011;41950;55.840;37.442;2023-06-14T12:02:56;5.80;;;2.50;;
56073;SDS011;41950;55.840;37.442;2023-06-14T12:05:24;5.47;;;2.30;;
56073;SDS011;41950;55.840;37.442;2023-06-14T12:08:01;4.38;;;2.58;;
56073;SDS011;41950;55.840;37.442;2023-06-14T12:10:31;5.30;;;2.55;;
56073;SDS011;41950;55.840;37.442;2023-06-14T12:13:08;5.97;;;2.38;;
56073;SDS011;41950;55.840;37.442;2023-06-14T12:15:34;5.63;;;2.40;;
56073;SDS011;41950;55.840;37.442;2023-06-14T12:18:01;4.53;;;2.22;;
56073;SDS011;41950;55.840;37.442;2023-06-14T12:20:30;6.18;;;2.80;;
56073;SDS011;41950;55.840;37.442;2023-06-14T12:22:57;6.03;;;2.90;;
56073;SDS011;41950;55.840;37.442;2023-06-14T12:25:29;6.50;;;2.60;;
56073;SDS011;41950;55.840;37.442;2023-06-14T12:28:04;4.70;;;2.47;;
56073;SDS011;41950;55.840;37.442;2023-06-14T12:30:32;4.25;;;2.40;;
56073;SDS011;41950;55.840;37.442;2023-06-14T12:32:57;5.28;;;2.35;;
56073;SDS011;41950;55.840;37.442;2023-06-14T12:35:23;4.38;;;2.70;;
56073;SDS011;41950;55.840;37.442;2023-06-14T12:37:49;6.45;;;2.70;;
56073;SDS011;41950;55.840;37.442;2023-06-14T12:40:14;4.95;;;2.47;;
56073;SDS011;41950;55.840;37.442;2023-06-14T12:42:41;4.80;;;2.20;;
56073;SDS011;41950;55.840;37.442;2023-06-14T12:45:07;5.20;;;2.42;;
56073;SDS011;41950;55.840;37.442;2023-06-14T12:47:33;4.18;;;2.47;;
56073;SDS011;41950;55.840;37.442;2023-06-14T12:49:59;6.47;;;2.22;;
56073;SDS011;41950;55.840;37.442;2023-06-14T12:52:25;4.00;;;2.65;;
56073;SDS011;41950;55.840;37.442;2023-06-14T12:54:50;5.93;;;2.70;;
56073;SDS011;41950;55.840;37.442;2023-06-14T12:57:16;4.68;;;2.10;;
56073;SDS011;41950;55.840;37.442;2023-06-14T12:59:42;4.70;;;2.17;;
56073;SDS011;41950;55.840;37.442;2023-06-14T13:02:14;5.18;;;2.22;;
56073;SDS011;41950;55.840;37.442;2023-06-14T13:04:42;3.47;;;2.10;;
56073;SDS011;41950;55.840;37.442;2023-06-14T13:07:08;5.10;;;2.53;;
56073;SDS011;41950;55.840;37.442;2023-06-14T13:09:35;4.93;;;2.35;;
56073;SDS011;41950;55.840;37.442;2023-06-14T13:12:02;9.23;;;2.72;;
56073;SDS011;41950;55.840;37.442;2023-06-14T13:14:28;7.55;;;2.42;;
56073;SDS011;41950;55.840;37.442;2023-06-14T13:16:53;4.57;;;2.38;;
56073;SDS011;41950;55.840;37.442;2023-06-14T13:19:20;4.45;;;2.30;;
56073;SDS011;41950;55.840;37.442;2023-06-14T13:21:46;4.47;;;2.35;;
56073;SDS011;41950;55.840;37.442;2023-06-14T13:24:25;5.38;;;2.40;;
56073;SDS011;41950;55.840;37.442;2023-06-14T13:26:55;4.28;;;2.42;;
56073;SDS011;41950;55.840;37.442;2023-06-14T13:29:24;5.45;;;2.60;;
56073;SDS011;41950;55.840;37.442;2023-06-14T13:31:50;3.55;;;2.20;;
56073;SDS011;41950;55.840;37.442;2023-06-14T13:34:15;5.65;;;2.55;;
56073;SDS011;41950;55.840;37.442;2023-06-14T13:36:41;3.45;;;2.17;;
56073;SDS011;41950;55.840;37.442;2023-06-14T13:39:07;5.60;;;2.75;;
56073;SDS011;41950;55.840;37.442;2023-06-14T13:41:33;3.95;;;2.30;;
56073;SDS011;41950;55.840;37.442;2023-06-14T13:44:00;4.43;;;2.30;;
56073;SDS011;41950;55.840;37.442;2023-06-14T13:46:29;3.95;;;2.50;;
56073;SDS011;41950;55.840;37.442;2023-06-14T13:48:55;4.07;;;2.40;;
56073;SDS011;41950;55.840;37.442;2023-06-14T13:51:20;4.20;;;3.03;;
56073;SDS011;41950;55.840;37.442;2023-06-14T13:53:49;5.35;;;2.70;;
56073;SDS011;41950;55.840;37.442;2023-06-14T13:56:16;5.13;;;2.50;;
56073;SDS011;41950;55.840;37.442;2023-06-14T13:58:42;6.57;;;2.70;;
56073;SDS011;41950;55.840;37.442;2023-06-14T14:01:08;5.10;;;2.65;;
56073;SDS011;41950;55.840;37.442;2023-06-14T14:03:35;5.15;;;2.70;;
56073;SDS011;41950;55.840;37.442;2023-06-14T14:06:01;5.07;;;3.30;;
56073;SDS011;41950;55.840;37.442;2023-06-14T14:08:28;5.95;;;2.75;;
56073;SDS011;41950;55.840;37.442;2023-06-14T14:10:54;7.68;;;2.60;;
56073;SDS011;41950;55.840;37.442;2023-06-14T14:13:21;5.82;;;3.00;;
56073;SDS011;41950;55.840;37.442;2023-06-14T14:15:47;5.38;;;3.33;;
56073;SDS011;41950;55.840;37.442;2023-06-14T14:18:14;4.80;;;2.50;;
56073;SDS011;41950;55.840;37.442;2023-06-14T14:20:40;4.28;;;2.50;;
56073;SDS011;41950;55.840;37.442;2023-06-14T14:23:06;4.40;;;2.70;;
56073;SDS011;41950;55.840;37.442;2023-06-14T14:25:32;3.60;;;2.50;;
56073;SDS011;41950;55.840;37.442;2023-06-14T14:27:57;5.18;;;2.72;;
56073;SDS011;41950;55.840;37.442;2023-06-14T14:30:23;5.03;;;2.50;;
56073;SDS011;41950;55.840;37.442;2023-06-14T14:32:49;3.47;;;2.30;;
56073;SDS011;41950;55.840;37.442;2023-06-14T14:35:16;4.53;;;2.63;;
56073;SDS011;41950;55.840;37.442;2023-06-14T14:37:43;4.93;;;2.83;;
56073;SDS011;41950;55.840;37.442;2023-06-14T14:40:09;6.72;;;2.80;;
56073;SDS011;41950;55.840;37.442;2023-06-14T14:42:35;3.50;;;2.17;;
56073;SDS011;41950;55.840;37.442;2023-06-14T14:45:02;4.22;;;2.45;;
56073;SDS011;41950;55.840;37.442;2023-06-14T14:47:32;4.72;;;2.35;;
56073;SDS011;41950;55.840;37.442;2023-06-14T14:49:58;4.00;;;2.55;;
56073;SDS011;41950;55.840;37.442;2023-06-14T14:52:24;8.13;;;2.40;;
56073;SDS011;41950;55.840;37.442;2023-06-14T14:54:51;4.68;;;2.55;;